Eau Claire, Pennsylvania
Current Conditions -  °F | °C
As of 2:15 PM on Thursday 18 Dec 2014 (Local Time) from KFKL Reporting Station
Overcast Overcast  
Wind Chill: 17°   Ceiling: 800
Heat Index: 27°   Visibility: 5mi
Dew Point: 23°   Wind: 9mph
Humidity: 86%   Direction: 270°W
Pressure: 30.1"   Gusts: NA
Location:  41.14°N, 79.8°W
Report Text: KFKL 181915Z AUTO 27008KT 5SM OVC008 M03/M05 A3010 RMK AO1
Loading
Personal Weather Stations






























Interactive Weather Map New forecast layout! Learn more

10-Day Weather Forecast

Advertisements
Track Severe Weather on mobile